Time;durP1;ratioP1;P1;durP2;ratioP2;P2;SDS_P1;SDS_P2;PMS_P1;PMS_P2;Temp;Humidity;BMP_temperature;BMP_pressure;BME280_temperature;BME280_humidity;BME280_pressure;Samples;Min_cycle;Max_cycle;Signal;HPM_P1;HPM_P2
2023/10/16 00:00:47;;;;;;;0.30;0.13;;;1.40;99.90;;;;;;5032296;28;20057;-77
2023/10/16 00:03:15;;;;;;;0.28;0.28;;;1.40;99.90;;;;;;5031364;28;20030;-77
2023/10/16 00:05:45;;;;;;;4.82;0.65;;;1.50;99.90;;;;;;5030584;28;20031;-76
2023/10/16 00:08:16;;;;;;;0.38;0.38;;;1.60;99.90;;;;;;5029678;28;20037;-76
2023/10/16 00:10:58;;;;;;;1.77;0.85;;;1.50;99.90;;;;;;5030326;28;20037;-77
2023/10/16 00:13:28;;;;;;;1.75;1.38;;;1.50;99.90;;;;;;5030320;28;20037;-76
2023/10/16 00:15:56;;;;;;;0.00;0.00;;;1.50;99.90;;;;;;5032906;28;20029;-76
2023/10/16 00:18:23;;;;;;;0.00;0.00;;;1.30;99.90;;;;;;5029755;28;20137;-77
2023/10/16 00:20:51;;;;;;;0.45;0.25;;;1.30;99.90;;;;;;5028519;28;20036;-76
2023/10/16 00:23:18;;;;;;;0.20;0.20;;;1.20;99.90;;;;;;5028241;28;20359;-81
2023/10/16 00:25:46;;;;;;;0.05;0.05;;;1.10;99.90;;;;;;5032465;28;20037;-76
2023/10/16 00:28:15;;;;;;;0.20;0.20;;;1.10;99.90;;;;;;5030908;28;20036;-77
2023/10/16 00:30:42;;;;;;;0.20;0.20;;;1.20;99.90;;;;;;5031228;28;20467;-77
2023/10/16 00:33:10;;;;;;;0.10;0.08;;;1.10;99.90;;;;;;5030190;28;20044;-77
2023/10/16 00:35:41;;;;;;;0.10;0.10;;;1.00;99.90;;;;;;5031467;28;20101;-78
2023/10/16 00:38:12;;;;;;;0.00;0.00;;;1.00;99.90;;;;;;5029316;28;20029;-77
2023/10/16 00:40:40;;;;;;;0.50;0.50;;;1.10;99.90;;;;;;5031191;28;20033;-77
2023/10/16 00:43:16;;;;;;;0.38;0.38;;;1.10;99.90;;;;;;5031834;28;20064;-76
2023/10/16 00:45:50;;;;;;;0.10;0.10;;;1.10;99.90;;;;;;5045087;28;20037;-77
2023/10/16 00:48:18;;;;;;;0.45;0.38;;;0.90;99.90;;;;;;5028173;28;20029;-81
2023/10/16 00:50:48;;;;;;;0.30;0.30;;;0.80;99.90;;;;;;5029771;28;20037;-77
2023/10/16 00:53:18;;;;;;;0.10;0.10;;;0.70;99.90;;;;;;5032471;28;20466;-76
2023/10/16 00:55:46;;;;;;;0.00;0.00;;;0.60;99.90;;;;;;5030244;28;20025;-76
2023/10/16 00:58:14;;;;;;;0.00;0.00;;;0.60;99.90;;;;;;5031204;28;20029;-76
2023/10/16 01:00:45;;;;;;;0.20;0.20;;;0.40;99.90;;;;;;5029037;28;20490;-76
2023/10/16 01:03:20;;;;;;;0.13;0.13;;;0.30;99.90;;;;;;5045617;28;20053;-77
2023/10/16 01:05:49;;;;;;;0.20;0.20;;;0.30;99.90;;;;;;5027772;28;20048;-76
2023/10/16 01:08:17;;;;;;;0.00;0.00;;;0.30;99.90;;;;;;5026856;28;20045;-76
2023/10/16 01:10:48;;;;;;;0.30;0.30;;;0.20;99.90;;;;;;5022644;28;20422;-76
2023/10/16 01:13:16;;;;;;;0.28;0.22;;;0.30;99.90;;;;;;5029253;28;20048;-76
2023/10/16 01:15:52;;;;;;;0.30;0.30;;;0.20;99.90;;;;;;5029191;28;20046;-77
2023/10/16 01:18:20;;;;;;;0.00;0.00;;;0.20;99.90;;;;;;5028272;28;20056;-81
2023/10/16 01:20:48;;;;;;;0.20;0.20;;;0.20;99.90;;;;;;5030485;28;20048;-76
2023/10/16 01:23:22;;;;;;;0.20;0.20;;;0.20;99.90;;;;;;5028835;28;20034;-77
2023/10/16 01:25:49;;;;;;;0.30;0.30;;;0.30;99.90;;;;;;5028249;28;20045;-77
2023/10/16 01:28:16;;;;;;;0.00;0.00;;;0.40;99.90;;;;;;5029975;28;20041;-76
2023/10/16 01:30:45;;;;;;;0.00;0.00;;;0.40;99.90;;;;;;5027495;28;20064;-76
2023/10/16 01:33:13;;;;;;;0.17;0.17;;;0.50;99.90;;;;;;5030295;28;20050;-76
2023/10/16 01:35:39;;;;;;;0.03;0.03;;;0.50;99.90;;;;;;5032354;28;20037;-76
2023/10/16 01:38:15;;;;;;;0.00;0.00;;;0.60;99.90;;;;;;5028000;28;20034;-76
2023/10/16 01:43:35;;;;;;;0.73;0.73;;;0.50;99.90;;;;;;5029043;28;20052;-77
2023/10/16 01:46:10;;;;;;;0.00;0.00;;;0.50;99.90;;;;;;5027269;28;20033;-79
2023/10/16 01:48:41;;;;;;;0.00;0.00;;;0.60;99.90;;;;;;5029488;28;20532;-76
2023/10/16 01:51:19;;;;;;;0.00;0.00;;;0.50;99.90;;;;;;5028797;28;20045;-76
2023/10/16 01:53:47;;;;;;;0.00;0.00;;;0.50;99.90;;;;;;5028857;28;20032;-76
2023/10/16 01:56:14;;;;;;;0.30;0.30;;;0.50;99.90;;;;;;5023934;28;20467;-76
2023/10/16 01:58:45;;;;;;;0.00;0.00;;;0.40;99.90;;;;;;5026874;28;20459;-78
2023/10/16 02:01:14;;;;;;;0.00;0.00;;;0.50;99.90;;;;;;5027126;28;20045;-76
2023/10/16 02:03:45;;;;;;;0.10;0.10;;;0.50;99.90;;;;;;5026086;28;20045;-78
2023/10/16 02:06:12;;;;;;;0.28;0.28;;;0.40;99.90;;;;;;5025382;28;20056;-76
2023/10/16 02:08:39;;;;;;;0.00;0.00;;;0.40;99.90;;;;;;5029523;28;20033;-76
2023/10/16 02:11:06;;;;;;;0.30;0.30;;;0.30;99.90;;;;;;5026266;28;20045;-76
2023/10/16 02:13:36;;;;;;;0.08;0.08;;;0.20;99.90;;;;;;5025624;28;20524;-76
2023/10/16 02:16:06;;;;;;;0.00;0.00;;;0.20;99.90;;;;;;5028877;28;20037;-79
2023/10/16 02:18:37;;;;;;;0.10;0.10;;;0.30;99.90;;;;;;5026066;28;20048;-76
2023/10/16 02:21:04;;;;;;;0.38;0.38;;;0.30;99.90;;;;;;5030775;28;20041;-76
2023/10/16 02:23:33;;;;;;;0.65;0.65;;;0.30;99.90;;;;;;5027991;28;20037;-75
2023/10/16 02:26:01;;;;;;;0.35;0.35;;;0.10;99.90;;;;;;5027278;28;20052;-77
2023/10/16 02:28:33;;;;;;;0.60;0.60;;;0.10;99.90;;;;;;5042036;28;20045;-76
2023/10/16 02:31:15;;;;;;;0.00;0.00;;;0.10;99.90;;;;;;5028214;28;20128;-76
2023/10/16 02:33:46;;;;;;;0.00;0.00;;;0.00;99.90;;;;;;5029444;28;20052;-77
2023/10/16 02:36:13;;;;;;;0.25;0.25;;;0.10;99.90;;;;;;5027385;28;20133;-76
2023/10/16 02:38:41;;;;;;;0.00;0.00;;;0.00;99.90;;;;;;5029556;28;20042;-76
2023/10/16 02:41:09;;;;;;;0.10;0.10;;;0.00;99.90;;;;;;5028289;28;20038;-75
2023/10/16 02:43:37;;;;;;;0.10;0.10;;;0.10;99.90;;;;;;5028939;28;20035;-76
2023/10/16 02:46:04;;;;;;;0.25;0.25;;;0.10;99.90;;;;;;5025160;28;20038;-76
2023/10/16 02:48:31;;;;;;;0.00;0.00;;;0.20;99.90;;;;;;5028472;28;20470;-76
2023/10/16 02:50:57;;;;;;;0.00;0.00;;;0.20;99.90;;;;;;5027678;28;20049;-76
2023/10/16 02:53:28;;;;;;;0.20;0.20;;;0.30;99.90;;;;;;5029131;28;20034;-81
2023/10/16 02:56:05;;;;;;;1.38;0.52;;;0.20;99.90;;;;;;5028242;28;20038;-79
2023/10/16 02:58:32;;;;;;;0.10;0.10;;;0.10;99.90;;;;;;5028633;28;20037;-76
2023/10/16 03:01:06;;;;;;;0.00;0.00;;;-0.10;99.90;;;;;;5027791;28;20062;-76
2023/10/16 03:03:32;;;;;;;0.00;0.00;;;-0.10;99.90;;;;;;5028410;28;20033;-75
2023/10/16 03:05:59;;;;;;;1.45;0.82;;;-0.20;99.90;;;;;;5025317;28;20033;-77
2023/10/16 03:08:32;;;;;;;0.03;0.03;;;-0.20;99.90;;;;;;5011607;28;20064;-81
2023/10/16 03:11:04;;;;;;;0.32;0.32;;;0.00;99.90;;;;;;5026131;28;20045;-75
2023/10/16 03:13:35;;;;;;;0.57;0.52;;;0.10;99.90;;;;;;5027695;28;20049;-76
2023/10/16 03:16:07;;;;;;;0.00;0.00;;;0.10;99.90;;;;;;5028003;28;20042;-75
2023/10/16 03:18:34;;;;;;;0.50;0.50;;;0.10;99.90;;;;;;5028421;28;20394;-76
2023/10/16 03:23:43;;;;;;;6.40;0.80;;;-0.10;99.90;;;;;;5025350;28;20045;-76
2023/10/16 03:26:18;;;;;;;;;;;-0.10;99.90;;;;;;5027026;28;20424;-76
2023/10/16 03:28:44;;;;;;;0.82;0.80;;;-0.30;99.90;;;;;;5029016;28;19980;-75
2023/10/16 03:31:11;;;;;;;0.50;0.50;;;-0.40;99.90;;;;;;5028835;28;20057;-76
2023/10/16 03:33:38;;;;;;;0.00;0.00;;;-0.60;99.90;;;;;;5027890;28;20360;-76
2023/10/16 03:36:04;;;;;;;0.00;0.00;;;-0.50;99.90;;;;;;5027922;28;20033;-76
2023/10/16 03:38:37;;;;;;;0.00;0.00;;;-0.40;99.90;;;;;;5027079;28;20040;-75
2023/10/16 03:41:11;;;;;;;0.00;0.00;;;-0.50;99.90;;;;;;5027434;28;20036;-76
2023/10/16 03:43:42;;;;;;;0.00;0.00;;;-0.50;99.90;;;;;;5028339;28;20034;-75
2023/10/16 03:46:13;;;;;;;;;;;-0.60;99.90;;;;;;5026114;28;20040;-77
2023/10/16 03:48:39;;;;;;;0.00;0.00;;;-0.70;99.90;;;;;;5026826;28;19962;-76
2023/10/16 03:51:07;;;;;;;0.00;0.00;;;-0.70;99.90;;;;;;5026721;28;20056;-76
2023/10/16 03:53:35;;;;;;;0.00;0.00;;;-0.60;99.90;;;;;;5025777;28;20037;-76
2023/10/16 03:56:07;;;;;;;0.10;0.10;;;-0.50;99.90;;;;;;5027131;28;20414;-76
2023/10/16 03:58:41;;;;;;;0.77;0.75;;;-0.60;99.90;;;;;;5029895;28;20026;-76
2023/10/16 04:01:11;;;;;;;0.00;0.00;;;-0.60;99.90;;;;;;5029554;28;20053;-76
2023/10/16 04:03:47;;;;;;;0.00;0.00;;;-0.60;99.90;;;;;;5030014;28;20383;-76
2023/10/16 04:06:19;;;;;;;0.13;0.13;;;-0.60;99.90;;;;;;5027051;28;20025;-76
2023/10/16 04:08:47;;;;;;;0.00;0.00;;;-0.40;99.90;;;;;;5030272;28;20459;-76
2023/10/16 04:11:17;;;;;;;1.45;1.35;;;-0.30;99.90;;;;;;5031491;28;20037;-76
2023/10/16 04:13:49;;;;;;;0.00;0.00;;;-0.40;99.90;;;;;;5031017;28;20459;-76
2023/10/16 04:24:54;;;;;;;0.03;0.03;;;-0.50;99.90;;;;;;4987656;28;20042;-78
2023/10/16 04:30:52;;;;;;;0.10;0.10;;;-0.70;99.90;;;;;;5029662;28;20046;-77
2023/10/16 04:35:32;;;;;;;0.00;0.00;;;-0.90;99.90;;;;;;5027895;28;20037;-76
2023/10/16 04:46:23;;;;;;;0.10;0.10;;;-0.90;99.90;;;;;;5026926;28;20052;-78
2023/10/16 04:48:51;;;;;;;0.00;0.00;;;-0.70;99.90;;;;;;5030224;28;20037;-77
2023/10/16 04:51:36;;;;;;;8.70;1.88;;;-0.60;99.90;;;;;;5029227;28;20033;-77
2023/10/16 04:54:27;;;;;;;0.00;0.00;;;-0.60;99.90;;;;;;5031588;28;20029;-78
2023/10/16 04:59:47;;;;;;;0.00;0.00;;;-0.50;99.90;;;;;;5030285;28;20033;-76
2023/10/16 05:02:18;;;;;;;0.95;0.75;;;-0.50;99.90;;;;;;5029917;28;20057;-76
2023/10/16 05:05:32;;;;;;;0.10;0.10;;;-0.50;99.90;;;;;;5028421;28;20033;-78
2023/10/16 05:07:53;;;;;;;0.40;0.30;;;-0.60;99.90;;;;;;5028074;28;20037;-79
2023/10/16 05:13:37;;;;;;;0.00;0.00;;;-0.70;99.90;;;;;;5026378;28;20041;-79
2023/10/16 05:18:51;;;;;;;1.15;0.93;;;-0.90;99.90;;;;;;5029293;28;20462;-78
2023/10/16 06:16:21;;;;;;;0.00;0.00;;;-0.50;99.90;;;;;;5026875;28;20029;-76
2023/10/16 06:18:48;;;;;;;0.63;0.20;;;-0.30;99.90;;;;;;5027871;28;20474;-77
2023/10/16 06:21:15;;;;;;;0.00;0.00;;;-0.10;99.90;;;;;;5027064;28;20374;-77
2023/10/16 06:23:42;;;;;;;0.25;0.25;;;0.00;99.90;;;;;;5026615;28;20109;-77
2023/10/16 06:26:09;;;;;;;0.05;0.05;;;0.10;99.90;;;;;;5029695;28;20045;-77
2023/10/16 06:28:47;;;;;;;0.00;0.00;;;0.20;99.90;;;;;;5027158;28;20029;-78
2023/10/16 06:31:22;;;;;;;0.00;0.00;;;0.30;99.90;;;;;;5029088;28;20057;-77
2023/10/16 06:33:53;;;;;;;0.20;0.20;;;0.40;99.90;;;;;;5027007;28;20033;-77
2023/10/16 06:36:20;;;;;;;0.55;0.55;;;0.50;99.90;;;;;;5027193;28;20056;-77
2023/10/16 06:38:51;;;;;;;0.15;0.15;;;0.70;99.90;;;;;;5025228;28;20030;-77
2023/10/16 06:41:18;;;;;;;0.00;0.00;;;0.80;99.90;;;;;;5029828;28;20450;-77
2023/10/16 06:43:47;;;;;;;0.50;0.50;;;0.90;99.90;;;;;;5026082;28;20041;-77
2023/10/16 06:46:25;;;;;;;0.15;0.15;;;1.00;99.90;;;;;;5027524;28;20045;-77
2023/10/16 06:48:53;;;;;;;0.13;0.13;;;1.10;99.90;;;;;;5024778;28;20475;-77
2023/10/16 06:51:25;;;;;;;1.02;0.43;;;1.20;99.90;;;;;;5029036;28;20065;-77
2023/10/16 06:54:01;;;;;;;0.20;0.20;;;1.30;99.90;;;;;;5026910;28;20052;-77
2023/10/16 06:56:35;;;;;;;0.45;0.45;;;1.40;99.90;;;;;;5029424;28;20100;-77
2023/10/16 06:59:01;;;;;;;4.68;0.47;;;1.60;99.90;;;;;;5041499;28;20034;-78
2023/10/16 07:01:27;;;;;;;0.43;0.30;;;1.70;99.90;;;;;;5029662;28;20064;-77
2023/10/16 07:03:57;;;;;;;1.48;0.80;;;1.80;99.90;;;;;;5029156;28;20048;-78
2023/10/16 07:06:32;;;;;;;0.00;0.00;;;1.90;99.90;;;;;;5028486;28;20029;-77
2023/10/16 07:09:00;;;;;;;3.78;1.08;;;2.10;99.90;;;;;;5029176;28;20037;-78
2023/10/16 07:11:30;;;;;;;1.13;0.55;;;2.20;99.90;;;;;;5028532;28;20390;-78
2023/10/16 07:13:57;;;;;;;1.60;1.50;;;2.30;99.90;;;;;;5027618;28;20501;-78
2023/10/16 07:16:23;;;;;;;0.32;0.32;;;2.40;99.90;;;;;;5030518;28;20034;-78
2023/10/16 07:18:54;;;;;;;0.50;0.40;;;2.50;99.90;;;;;;5026909;28;20040;-77
2023/10/16 07:21:21;;;;;;;3.00;1.48;;;2.70;99.90;;;;;;5026491;28;20029;-77
2023/10/16 07:23:47;;;;;;;0.75;0.43;;;3.00;99.90;;;;;;5029257;28;20034;-76
2023/10/16 07:26:19;;;;;;;0.50;0.50;;;3.10;99.90;;;;;;5027333;28;20383;-76
2023/10/16 07:28:48;;;;;;;0.88;0.80;;;3.30;99.90;;;;;;5029150;28;20041;-77
2023/10/16 07:31:16;;;;;;;0.20;0.20;;;3.60;99.90;;;;;;5028170;28;20049;-78
2023/10/16 07:33:50;;;;;;;0.90;0.90;;;3.60;99.90;;;;;;5032494;28;20040;-77
2023/10/16 07:36:17;;;;;;;0.30;0.30;;;3.60;99.90;;;;;;5034536;28;20036;-77
2023/10/16 07:38:44;;;;;;;0.43;0.43;;;3.70;99.90;;;;;;5029734;28;20026;-77
2023/10/16 07:41:13;;;;;;;1.35;1.25;;;3.80;99.90;;;;;;5033418;28;20056;-77
2023/10/16 07:43:39;;;;;;;0.50;0.50;;;3.80;99.90;;;;;;5031039;28;20053;-80
2023/10/16 07:48:44;;;;;;;0.40;0.40;;;4.10;99.90;;;;;;5031301;28;20048;-77
2023/10/16 07:51:12;;;;;;;1.02;0.70;;;4.20;99.90;;;;;;5033543;28;20046;-78
2023/10/16 07:53:39;;;;;;;0.40;0.40;;;4.30;99.90;;;;;;5031603;28;20034;-80
2023/10/16 07:56:19;;;;;;;0.95;0.95;;;4.40;99.90;;;;;;5032243;28;20033;-79
2023/10/16 07:58:48;;;;;;;0.38;0.38;;;4.50;99.90;;;;;;5031892;28;20053;-78
2023/10/16 08:01:32;;;;;;;0.80;0.57;;;4.60;99.90;;;;;;5032291;28;20072;-77
2023/10/16 08:04:01;;;;;;;0.82;0.82;;;4.80;99.90;;;;;;5032234;28;20175;-78
2023/10/16 08:06:28;;;;;;;0.35;0.35;;;4.80;99.90;;;;;;5020396;28;20034;-79
2023/10/16 08:11:46;;;;;;;2.05;1.15;;;5.00;99.90;;;;;;5031243;28;20065;-80
2023/10/16 08:14:15;;;;;;;0.98;0.98;;;5.30;99.90;;;;;;5030899;28;20033;-76
2023/10/16 08:16:41;;;;;;;0.75;0.73;;;5.30;99.90;;;;;;5031572;28;20030;-77
2023/10/16 08:19:16;;;;;;;0.13;0.13;;;5.60;99.90;;;;;;5031842;28;20044;-78
2023/10/16 08:21:42;;;;;;;0.38;0.38;;;5.70;99.90;;;;;;5029914;28;20052;-77
2023/10/16 08:24:13;;;;;;;0.63;0.57;;;5.90;96.40;;;;;;5031053;28;20518;-77
2023/10/16 08:26:43;;;;;;;0.35;0.35;;;6.10;91.80;;;;;;5031016;28;20037;-79
2023/10/16 08:29:34;;;;;;;2.67;1.00;;;6.20;59.60;;;;;;5036766;28;20520;-77
2023/10/16 08:34:45;;;;;;;0.82;0.60;;;6.10;64.70;;;;;;5028624;28;20038;-77
2023/10/16 08:37:13;;;;;;;0.40;0.40;;;6.70;39.60;;;;;;5030236;28;20041;-78
2023/10/16 08:39:47;;;;;;;0.68;0.68;;;6.80;1.00;;;;;;5028278;28;20029;-80
2023/10/16 08:42:19;;;;;;;0.65;0.65;;;6.80;1.00;;;;;;5030525;28;20033;-82
2023/10/16 08:44:51;;;;;;;2.83;0.45;;;7.00;1.00;;;;;;5029047;28;20030;-77
2023/10/16 08:47:24;;;;;;;11.60;1.08;;;7.20;1.00;;;;;;5030479;28;20037;-79
2023/10/16 08:49:55;;;;;;;0.68;0.68;;;7.70;1.00;;;;;;5030916;28;20037;-79
2023/10/16 08:52:23;;;;;;;0.32;0.32;;;8.30;1.00;;;;;;5030783;28;20060;-80
2023/10/16 08:57:19;;;;;;;0.70;0.47;;;8.80;99.90;;;;;;5031335;28;20030;-81
2023/10/16 08:59:52;;;;;;;0.57;0.55;;;8.90;99.90;;;;;;5026762;28;20034;-80
2023/10/16 09:02:24;;;;;;;1.05;0.90;;;8.30;99.90;;;;;;5028671;28;20033;-79
2023/10/16 09:04:54;;;;;;;1.45;0.80;;;7.90;99.90;;;;;;5030341;28;20414;-80
2023/10/16 09:07:20;;;;;;;0.70;0.70;;;7.80;99.90;;;;;;5031232;28;20041;-80
2023/10/16 09:09:53;;;;;;;2.85;1.02;;;8.00;99.90;;;;;;5028366;28;20029;-79
2023/10/16 09:12:37;;;;;;;0.38;0.38;;;8.40;99.90;;;;;;5031648;28;20041;-80
2023/10/16 09:15:05;;;;;;;0.85;0.63;;;8.70;99.90;;;;;;5029946;28;20136;-80
2023/10/16 09:17:36;;;;;;;0.22;0.22;;;9.20;99.90;;;;;;5030377;28;20050;-80
2023/10/16 09:20:13;;;;;;;12.05;1.95;;;9.50;99.90;;;;;;5035781;28;20049;-80
2023/10/16 09:23:02;;;;;;;0.38;0.30;;;10.00;99.90;;;;;;5030489;28;20038;-78
2023/10/16 09:25:31;;;;;;;0.10;0.10;;;10.10;99.90;;;;;;5031282;28;20038;-80
2023/10/16 09:27:57;;;;;;;0.88;0.85;;;9.90;99.90;;;;;;5029224;28;20025;-80
2023/10/16 09:30:28;;;;;;;1.63;1.08;;;9.10;99.90;;;;;;5028016;28;20029;-80
2023/10/16 09:32:54;;;;;;;0.40;0.35;;;8.60;99.90;;;;;;5029345;28;20033;-82
2023/10/16 09:35:30;;;;;;;0.40;0.40;;;8.30;99.90;;;;;;5028929;28;20036;-82
2023/10/16 09:38:17;;;;;;;0.40;0.40;;;8.30;99.90;;;;;;5027148;28;20036;-80
2023/10/16 09:41:37;;;;;;;4.65;0.75;;;8.70;99.90;;;;;;5022181;28;20033;-79
2023/10/16 09:44:23;;;;;;;0.20;0.20;;;8.70;99.90;;;;;;5029581;28;20022;-80
2023/10/16 09:46:53;;;;;;;0.40;0.40;;;9.00;99.90;;;;;;5026575;28;20033;-79
2023/10/16 09:49:21;;;;;;;0.20;0.20;;;9.30;99.90;;;;;;5029101;28;20030;-80
2023/10/16 09:51:57;;;;;;;0.32;0.32;;;9.40;99.90;;;;;;5028752;28;20053;-80
2023/10/16 09:54:29;;;;;;;0.30;0.30;;;9.10;99.90;;;;;;5029000;28;20360;-80
2023/10/16 09:57:00;;;;;;;0.82;0.52;;;9.30;99.90;;;;;;5041587;28;20046;-80
2023/10/16 09:59:34;;;;;;;0.20;0.20;;;9.40;99.90;;;;;;5026491;28;20037;-80
2023/10/16 10:02:08;;;;;;;1.50;0.30;;;9.60;99.90;;;;;;5030333;28;20501;-80
2023/10/16 10:04:36;;;;;;;0.30;0.20;;;9.80;99.90;;;;;;5026656;28;20443;-80
2023/10/16 10:07:22;;;;;;;0.40;0.40;;;9.70;99.90;;;;;;5025815;28;20022;-81
2023/10/16 10:09:57;;;;;;;0.38;0.32;;;9.90;99.90;;;;;;5026343;28;20049;-80
2023/10/16 10:12:47;;;;;;;0.17;0.17;;;10.00;99.90;;;;;;5030053;28;20033;-80
2023/10/16 10:15:26;;;;;;;0.47;0.28;;;10.40;99.90;;;;;;5028811;28;20037;-80
2023/10/16 10:17:55;;;;;;;0.32;0.28;;;10.60;64.70;;;;;;5026506;28;22294;-80
2023/10/16 10:20:40;;;;;;;1.02;0.65;;;10.70;46.40;;;;;;5029793;28;20030;-77
2023/10/16 10:23:08;;;;;;;1.00;0.52;;;10.70;1.00;;;;;;5025960;28;20036;-81
2023/10/16 10:25:36;;;;;;;0.52;0.52;;;10.70;1.00;;;;;;5026390;28;20034;-81
2023/10/16 10:28:10;;;;;;;0.52;0.45;;;10.60;1.00;;;;;;5030354;28;20033;-81
2023/10/16 10:30:43;;;;;;;0.10;0.10;;;10.70;1.00;;;;;;5031509;28;20049;-82
2023/10/16 10:33:33;;;;;;;0.85;0.65;;;10.70;1.00;;;;;;5027245;28;20056;-82
2023/10/16 10:36:28;;;;;;;3.35;1.23;;;10.80;1.00;;;;;;5026245;28;20033;-80
2023/10/16 10:39:23;;;;;;;0.20;0.20;;;10.80;1.00;;;;;;5028001;28;20386;-81
2023/10/16 10:41:55;;;;;;;2.10;1.10;;;11.00;1.00;;;;;;5027029;28;20033;-82
2023/10/16 10:44:32;;;;;;;0.50;0.50;;;10.80;1.00;;;;;;5042219;28;20094;-82
2023/10/16 10:47:02;;;;;;;0.20;0.20;;;10.80;1.00;;;;;;5028636;28;20379;-82
2023/10/16 10:49:33;;;;;;;0.30;0.30;;;10.90;1.00;;;;;;5027860;28;20056;-81
2023/10/16 10:52:07;;;;;;;0.10;0.10;;;11.10;1.00;;;;;;5024542;28;20038;-81
2023/10/16 10:54:34;;;;;;;2.92;0.73;;;11.20;1.00;;;;;;5025178;28;20034;-81
2023/10/16 10:57:07;;;;;;;0.10;0.10;;;11.50;1.00;;;;;;5031265;28;20042;-83
2023/10/16 10:59:55;;;;;;;1.92;1.13;;;11.60;1.00;;;;;;5028293;28;20044;-81
2023/10/16 11:02:35;;;;;;;0.15;0.15;;;11.60;1.00;;;;;;5032676;28;20044;-85
2023/10/16 11:05:22;;;;;;;1.13;0.80;;;11.50;99.90;;;;;;5027544;28;20034;-83
2023/10/16 11:10:44;;;;;;;0.10;0.10;;;11.90;99.90;;;;;;5031346;28;20040;-82
2023/10/16 11:13:12;;;;;;;0.13;0.13;;;12.20;99.90;;;;;;5033129;28;20390;-81
2023/10/16 11:15:56;;;;;;;0.10;0.10;;;12.10;99.90;;;;;;5035767;28;20475;-80
2023/10/16 11:18:28;;;;;;;0.00;0.00;;;11.90;99.90;;;;;;5045539;28;20044;-80
2023/10/16 11:20:55;;;;;;;1.65;0.68;;;11.50;99.90;;;;;;5038500;28;20038;-80
2023/10/16 11:23:25;;;;;;;0.20;0.20;;;11.50;99.90;;;;;;5036244;28;20048;-80
2023/10/16 11:25:54;;;;;;;0.10;0.10;;;11.50;99.90;;;;;;5034546;28;20033;-81
2023/10/16 11:28:22;;;;;;;0.20;0.20;;;11.40;99.90;;;;;;5032476;28;20042;-80
2023/10/16 11:30:53;;;;;;;0.28;0.28;;;11.60;99.90;;;;;;5031208;28;20036;-79
2023/10/16 11:33:35;;;;;;;0.35;0.25;;;11.60;99.90;;;;;;5032837;28;20045;-80
2023/10/16 11:36:06;;;;;;;0.30;0.30;;;12.00;99.90;;;;;;5030751;28;20040;-80
2023/10/16 11:38:34;;;;;;;0.93;0.88;;;11.90;99.90;;;;;;5032455;28;20032;-76
2023/10/16 11:41:16;;;;;;;0.75;0.75;;;12.00;99.90;;;;;;5029330;28;20615;-81
2023/10/16 11:43:51;;;;;;;0.10;0.10;;;11.90;99.90;;;;;;5026760;28;20037;-80
2023/10/16 11:51:45;;;;;;;0.10;0.10;;;11.90;99.90;;;;;;5029428;28;20049;-81
2023/10/16 11:54:18;;;;;;;0.10;0.10;;;11.90;99.90;;;;;;5027962;28;20041;-81
2023/10/16 11:56:47;;;;;;;0.10;0.10;;;12.00;99.90;;;;;;5030148;28;20053;-82
2023/10/16 11:59:15;;;;;;;0.52;0.20;;;12.20;99.90;;;;;;5028820;28;20475;-77
2023/10/16 12:01:44;;;;;;;0.20;0.20;;;12.40;99.90;;;;;;5027749;28;20053;-79
2023/10/16 12:04:11;;;;;;;0.10;0.10;;;12.60;99.90;;;;;;5030123;28;20037;-79
2023/10/16 12:06:38;;;;;;;0.60;0.60;;;12.80;99.90;;;;;;5031106;28;20420;-79
2023/10/16 12:09:12;;;;;;;0.25;0.25;;;12.80;99.90;;;;;;5026546;28;20049;-80
2023/10/16 12:11:42;;;;;;;1.17;1.08;;;12.70;99.90;;;;;;5029874;28;20471;-80
2023/10/16 12:14:16;;;;;;;0.60;0.53;;;12.80;99.90;;;;;;5028217;28;20029;-79
2023/10/16 12:16:47;;;;;;;0.60;0.40;;;12.80;99.90;;;;;;5032056;28;20633;-79
2023/10/16 12:19:16;;;;;;;1.63;1.38;;;12.80;99.90;;;;;;5023416;28;20049;-79
2023/10/16 12:21:50;;;;;;;0.55;0.55;;;12.90;99.90;;;;;;5029434;28;20029;-79
2023/10/16 12:24:16;;;;;;;0.35;0.35;;;12.80;99.90;;;;;;5031246;28;20033;-79
2023/10/16 12:26:42;;;;;;;0.20;0.20;;;12.90;99.90;;;;;;5029472;28;20036;-80
2023/10/16 12:29:09;;;;;;;0.43;0.43;;;12.80;99.90;;;;;;5028539;28;20040;-81
2023/10/16 12:31:36;;;;;;;0.10;0.10;;;12.70;99.90;;;;;;5028805;28;20045;-82
2023/10/16 12:34:03;;;;;;;0.40;0.40;;;12.50;99.90;;;;;;5030400;28;20068;-81
2023/10/16 12:36:32;;;;;;;0.10;0.10;;;12.50;99.90;;;;;;5029946;28;20383;-81
2023/10/16 12:38:59;;;;;;;0.63;0.63;;;12.50;99.90;;;;;;5029384;28;20034;-81
2023/10/16 12:41:26;;;;;;;0.20;0.20;;;12.50;99.90;;;;;;5030776;28;20042;-80
2023/10/16 12:43:52;;;;;;;0.10;0.10;;;12.50;99.90;;;;;;5024942;28;20037;-80
2023/10/16 12:46:18;;;;;;;0.50;0.30;;;12.50;99.90;;;;;;5031677;28;20033;-81
2023/10/16 12:48:44;;;;;;;0.15;0.15;;;12.50;99.90;;;;;;5030167;28;20029;-80
2023/10/16 12:51:11;;;;;;;0.30;0.20;;;12.60;99.90;;;;;;5027639;28;20053;-80
2023/10/16 12:53:38;;;;;;;0.30;0.20;;;12.70;99.90;;;;;;5028737;28;20053;-80
2023/10/16 12:56:06;;;;;;;0.40;0.13;;;12.90;99.90;;;;;;5028428;28;20036;-80
2023/10/16 12:58:35;;;;;;;1.85;0.32;;;12.80;99.90;;;;;;5032717;28;20045;-80
2023/10/16 13:01:04;;;;;;;0.15;0.15;;;12.90;99.90;;;;;;4990156;28;1061226;-80
2023/10/16 13:03:33;;;;;;;0.65;0.47;;;12.90;99.90;;;;;;5030095;28;20048;-79
2023/10/16 13:06:00;;;;;;;1.65;0.60;;;13.00;99.90;;;;;;5027813;28;20517;-78
2023/10/16 13:08:27;;;;;;;0.20;0.20;;;13.00;99.90;;;;;;5031322;28;20037;-81
2023/10/16 13:10:53;;;;;;;0.10;0.10;;;12.80;99.90;;;;;;5029866;28;20033;-81
2023/10/16 13:13:21;;;;;;;0.20;0.20;;;12.50;99.90;;;;;;5028086;28;20410;-82
2023/10/16 13:15:51;;;;;;;0.22;0.22;;;12.40;99.90;;;;;;5031386;28;20036;-82
2023/10/16 13:18:27;;;;;;;0.22;0.22;;;12.40;99.90;;;;;;5030928;28;20033;-80
2023/10/16 13:21:13;;;;;;;0.10;0.10;;;12.50;99.90;;;;;;5029185;28;20033;-81
2023/10/16 13:23:40;;;;;;;0.10;0.10;;;12.60;99.90;;;;;;5026315;28;20044;-81
2023/10/16 13:26:07;;;;;;;0.35;0.35;;;12.60;99.90;;;;;;5027140;28;20040;-82
2023/10/16 13:28:36;;;;;;;0.10;0.10;;;12.80;99.90;;;;;;5029590;28;20044;-80
2023/10/16 13:31:03;;;;;;;0.10;0.10;;;12.90;99.90;;;;;;5027889;28;20041;-81
2023/10/16 13:33:33;;;;;;;0.40;0.40;;;13.00;99.90;;;;;;5030409;28;20049;-81
2023/10/16 13:36:03;;;;;;;0.10;0.10;;;13.10;99.90;;;;;;5028774;28;20030;-81
2023/10/16 13:38:31;;;;;;;0.77;0.32;;;13.50;99.90;;;;;;5030938;28;20041;-79
2023/10/16 13:41:06;;;;;;;0.10;0.10;;;13.50;99.90;;;;;;5030563;28;20493;-80
2023/10/16 13:43:33;;;;;;;0.10;0.10;;;13.60;99.90;;;;;;5036871;28;20041;-81
2023/10/16 13:46:01;;;;;;;0.35;0.35;;;13.80;99.90;;;;;;5031187;28;20041;-79
2023/10/16 13:48:28;;;;;;;0.80;0.75;;;13.50;99.90;;;;;;5030492;28;20033;-80
2023/10/16 13:50:54;;;;;;;0.10;0.10;;;13.40;99.90;;;;;;5031005;28;20029;-80
2023/10/16 13:53:21;;;;;;;0.28;0.28;;;13.40;99.90;;;;;;5025769;28;20052;-81
2023/10/16 13:55:52;;;;;;;1.88;0.50;;;13.50;99.90;;;;;;5030104;28;20036;-81
2023/10/16 13:58:20;;;;;;;0.10;0.10;;;13.70;99.90;;;;;;5030464;28;20475;-82
2023/10/16 14:00:47;;;;;;;0.35;0.35;;;13.70;99.90;;;;;;5029440;28;20061;-82
2023/10/16 14:05:44;;;;;;;0.63;0.63;;;13.50;99.20;;;;;;5030232;28;20049;-81
2023/10/16 14:08:14;;;;;;;1.13;0.55;;;13.50;98.40;;;;;;5028634;28;20394;-82
2023/10/16 14:10:52;;;;;;;0.28;0.28;;;13.50;99.90;;;;;;5030317;28;20044;-81
2023/10/16 14:13:19;;;;;;;0.30;0.17;;;13.30;99.90;;;;;;5028887;28;20049;-82
2023/10/16 14:15:47;;;;;;;0.35;0.30;;;13.40;99.90;;;;;;5027293;28;20124;-81
2023/10/16 14:18:25;;;;;;;0.10;0.10;;;13.50;99.90;;;;;;5027423;28;20140;-81
2023/10/16 14:20:51;;;;;;;0.10;0.10;;;13.50;99.80;;;;;;5028634;28;20025;-82
2023/10/16 14:23:28;;;;;;;0.80;0.73;;;13.50;99.90;;;;;;5028469;28;20378;-81
2023/10/16 14:25:58;;;;;;;0.10;0.10;;;13.60;99.90;;;;;;5027697;28;20044;-80
2023/10/16 14:31:09;;;;;;;0.25;0.25;;;13.60;99.90;;;;;;5014333;28;20403;-81
2023/10/16 14:33:42;;;;;;;0.20;0.20;;;13.60;99.90;;;;;;5027273;28;20046;-80
2023/10/16 14:36:16;;;;;;;0.00;0.00;;;13.50;99.90;;;;;;5024636;28;20379;-81
2023/10/16 14:38:43;;;;;;;0.10;0.10;;;13.40;99.90;;;;;;5027747;28;20033;-81
2023/10/16 14:41:15;;;;;;;0.05;0.05;;;13.40;99.90;;;;;;5030496;28;20030;-80
2023/10/16 14:43:45;;;;;;;0.55;0.32;;;13.40;99.90;;;;;;5022918;28;20041;-80
2023/10/16 14:46:12;;;;;;;0.03;0.03;;;13.50;99.90;;;;;;5028287;28;20037;-81
2023/10/16 14:48:41;;;;;;;0.30;0.30;;;13.30;99.90;;;;;;5029674;28;20036;-80
2023/10/16 14:51:07;;;;;;;0.10;0.10;;;13.30;99.90;;;;;;5029247;28;20460;-79
2023/10/16 14:53:35;;;;;;;1.77;0.98;;;13.20;99.90;;;;;;5028253;28;20045;-78
2023/10/16 14:56:06;;;;;;;0.10;0.10;;;13.20;99.90;;;;;;5028976;28;20033;-79
2023/10/16 14:58:34;;;;;;;0.52;0.52;;;13.10;99.90;;;;;;5026555;28;20053;-80
2023/10/16 15:01:09;;;;;;;0.10;0.10;;;13.10;99.90;;;;;;5025057;28;20045;-80
2023/10/16 15:03:38;;;;;;;0.00;0.00;;;13.10;99.90;;;;;;5027025;28;20049;-81
2023/10/16 15:06:08;;;;;;;0.45;0.28;;;12.90;99.90;;;;;;5026457;28;20044;-80
2023/10/16 15:08:35;;;;;;;0.10;0.10;;;12.90;99.90;;;;;;5030594;28;20037;-80